sensor_id;sensor_type;location;lat;lon;timestamp;temperature;humidity
74940;HTU21D;63505;45.226;37.908;2023-06-22T00:00:55;18.95;81.17
74940;HTU21D;63505;45.226;37.908;2023-06-22T00:03:23;18.96;81.18
74940;HTU21D;63505;45.226;37.908;2023-06-22T00:05:50;18.94;81.21
74940;HTU21D;63505;45.226;37.908;2023-06-22T00:08:17;18.94;81.23
74940;HTU21D;63505;45.226;37.908;2023-06-22T00:10:44;18.93;81.24
74940;HTU21D;63505;45.226;37.908;2023-06-22T00:13:11;18.89;81.29
74940;HTU21D;63505;45.226;37.908;2023-06-22T00:15:38;18.86;81.36
74940;HTU21D;63505;45.226;37.908;2023-06-22T00:18:08;18.83;81.44
74940;HTU21D;63505;45.226;37.908;2023-06-22T00:20:34;18.80;81.48
74940;HTU21D;63505;45.226;37.908;2023-06-22T00:23:04;18.79;81.49
74940;HTU21D;63505;45.226;37.908;2023-06-22T00:25:40;18.78;81.49
74940;HTU21D;63505;45.226;37.908;2023-06-22T00:28:06;18.76;81.47
74940;HTU21D;63505;45.226;37.908;2023-06-22T00:30:34;18.76;81.48
74940;HTU21D;63505;45.226;37.908;2023-06-22T00:33:00;18.72;81.48
74940;HTU21D;63505;45.226;37.908;2023-06-22T00:35:26;18.72;81.49
74940;HTU21D;63505;45.226;37.908;2023-06-22T00:37:59;18.71;81.49
74940;HTU21D;63505;45.226;37.908;2023-06-22T00:40:31;18.69;81.48
74940;HTU21D;63505;45.226;37.908;2023-06-22T00:42:57;18.68;81.46
74940;HTU21D;63505;45.226;37.908;2023-06-22T00:45:24;18.66;81.47
74940;HTU21D;63505;45.226;37.908;2023-06-22T00:47:55;18.64;81.46
74940;HTU21D;63505;45.226;37.908;2023-06-22T00:50:23;18.61;81.47
74940;HTU21D;63505;45.226;37.908;2023-06-22T00:52:57;18.59;81.45
74940;HTU21D;63505;45.226;37.908;2023-06-22T00:55:24;18.57;81.42
74940;HTU21D;63505;45.226;37.908;2023-06-22T00:57:52;18.54;81.43
74940;HTU21D;63505;45.226;37.908;2023-06-22T01:00:23;18.52;81.45
74940;HTU21D;63505;45.226;37.908;2023-06-22T01:02:51;18.52;81.46
74940;HTU21D;63505;45.226;37.908;2023-06-22T01:05:20;18.49;81.46
74940;HTU21D;63505;45.226;37.908;2023-06-22T01:07:58;18.46;81.48
74940;HTU21D;63505;45.226;37.908;2023-06-22T01:10:40;18.43;81.50
74940;HTU21D;63505;45.226;37.908;2023-06-22T01:15:45;18.38;81.49
74940;HTU21D;63505;45.226;37.908;2023-06-22T01:18:16;18.36;81.47
74940;HTU21D;63505;45.226;37.908;2023-06-22T01:20:43;18.38;81.46
74940;HTU21D;63505;45.226;37.908;2023-06-22T01:23:26;18.38;81.45
74940;HTU21D;63505;45.226;37.908;2023-06-22T01:26:02;18.40;81.38
74940;HTU21D;63505;45.226;37.908;2023-06-22T01:28:45;18.39;81.32
74940;HTU21D;63505;45.226;37.908;2023-06-22T01:31:14;18.37;81.27
74940;HTU21D;63505;45.226;37.908;2023-06-22T01:33:43;18.33;81.33
74940;HTU21D;63505;45.226;37.908;2023-06-22T01:36:13;18.27;81.39
74940;HTU21D;63505;45.226;37.908;2023-06-22T01:38:39;18.21;81.55
74940;HTU21D;63505;45.226;37.908;2023-06-22T01:41:05;18.18;81.62
74940;HTU21D;63505;45.226;37.908;2023-06-22T01:43:32;18.17;81.62
74940;HTU21D;63505;45.226;37.908;2023-06-22T01:46:00;18.14;81.57
74940;HTU21D;63505;45.226;37.908;2023-06-22T01:48:27;18.11;81.59
74940;HTU21D;63505;45.226;37.908;2023-06-22T01:50:53;18.11;81.59
74940;HTU21D;63505;45.226;37.908;2023-06-22T01:53:23;18.11;81.57
74940;HTU21D;63505;45.226;37.908;2023-06-22T01:55:51;18.12;81.52
74940;HTU21D;63505;45.226;37.908;2023-06-22T01:58:17;18.11;81.50
74940;HTU21D;63505;45.226;37.908;2023-06-22T02:00:50;18.10;81.53
74940;HTU21D;63505;45.226;37.908;2023-06-22T02:03:22;18.11;81.53
74940;HTU21D;63505;45.226;37.908;2023-06-22T02:06:04;18.10;81.50
74940;HTU21D;63505;45.226;37.908;2023-06-22T02:08:42;18.08;81.49
74940;HTU21D;63505;45.226;37.908;2023-06-22T02:11:13;18.06;81.54
74940;HTU21D;63505;45.226;37.908;2023-06-22T02:13:40;18.07;81.57
74940;HTU21D;63505;45.226;37.908;2023-06-22T02:16:12;18.09;81.30
74940;HTU21D;63505;45.226;37.908;2023-06-22T02:18:46;18.11;81.26
74940;HTU21D;63505;45.226;37.908;2023-06-22T02:21:12;18.11;81.23
74940;HTU21D;63505;45.226;37.908;2023-06-22T02:23:38;18.14;81.29
74940;HTU21D;63505;45.226;37.908;2023-06-22T02:26:04;18.17;81.33
74940;HTU21D;63505;45.226;37.908;2023-06-22T02:28:30;18.21;81.36
74940;HTU21D;63505;45.226;37.908;2023-06-22T02:30:57;18.26;81.36
74940;HTU21D;63505;45.226;37.908;2023-06-22T02:33:22;18.32;81.36
74940;HTU21D;63505;45.226;37.908;2023-06-22T02:35:48;18.39;81.33
74940;HTU21D;63505;45.226;37.908;2023-06-22T02:38:14;18.46;81.27
74940;HTU21D;63505;45.226;37.908;2023-06-22T02:40:40;18.51;81.25
74940;HTU21D;63505;45.226;37.908;2023-06-22T02:43:06;18.58;81.26
74940;HTU21D;63505;45.226;37.908;2023-06-22T02:45:32;18.62;81.28
74940;HTU21D;63505;45.226;37.908;2023-06-22T02:47:58;18.70;81.30
74940;HTU21D;63505;45.226;37.908;2023-06-22T02:50:24;18.78;81.31
74940;HTU21D;63505;45.226;37.908;2023-06-22T02:52:51;18.87;81.31
74940;HTU21D;63505;45.226;37.908;2023-06-22T02:55:17;18.95;81.33
74940;HTU21D;63505;45.226;37.908;2023-06-22T02:57:51;19.05;81.30
74940;HTU21D;63505;45.226;37.908;2023-06-22T03:00:19;19.15;81.27
74940;HTU21D;63505;45.226;37.908;2023-06-22T03:02:47;19.25;81.26
74940;HTU21D;63505;45.226;37.908;2023-06-22T03:05:14;19.32;81.22
74940;HTU21D;63505;45.226;37.908;2023-06-22T03:07:46;19.43;81.26
74940;HTU21D;63505;45.226;37.908;2023-06-22T03:10:13;19.53;81.20
74940;HTU21D;63505;45.226;37.908;2023-06-22T03:12:41;19.62;81.20
74940;HTU21D;63505;45.226;37.908;2023-06-22T03:15:09;19.73;81.21
74940;HTU21D;63505;45.226;37.908;2023-06-22T03:17:36;19.84;81.23
74940;HTU21D;63505;45.226;37.908;2023-06-22T03:20:03;19.96;81.24
74940;HTU21D;63505;45.226;37.908;2023-06-22T03:22:43;20.04;81.27
74940;HTU21D;63505;45.226;37.908;2023-06-22T03:25:10;20.15;81.21
74940;HTU21D;63505;45.226;37.908;2023-06-22T03:27:42;20.26;81.23
74940;HTU21D;63505;45.226;37.908;2023-06-22T03:30:10;20.37;81.27
74940;HTU21D;63505;45.226;37.908;2023-06-22T03:32:36;20.49;81.32
74940;HTU21D;63505;45.226;37.908;2023-06-22T03:35:05;20.64;81.39
74940;HTU21D;63505;45.226;37.908;2023-06-22T03:37:32;20.79;81.42
74940;HTU21D;63505;45.226;37.908;2023-06-22T03:39:59;20.93;81.39
74940;HTU21D;63505;45.226;37.908;2023-06-22T03:42:26;21.06;81.37
74940;HTU21D;63505;45.226;37.908;2023-06-22T03:44:52;21.17;81.33
74940;HTU21D;63505;45.226;37.908;2023-06-22T03:47:18;21.30;81.26
74940;HTU21D;63505;45.226;37.908;2023-06-22T03:49:44;21.36;81.30
74940;HTU21D;63505;45.226;37.908;2023-06-22T03:52:10;21.45;81.36
74940;HTU21D;63505;45.226;37.908;2023-06-22T03:54:36;21.59;81.52
74940;HTU21D;63505;45.226;37.908;2023-06-22T03:57:02;21.70;81.55
74940;HTU21D;63505;45.226;37.908;2023-06-22T03:59:28;21.80;81.46
74940;HTU21D;63505;45.226;37.908;2023-06-22T04:01:54;21.91;81.45
74940;HTU21D;63505;45.226;37.908;2023-06-22T04:04:20;21.95;81.39
74940;HTU21D;63505;45.226;37.908;2023-06-22T04:06:46;22.04;81.27
74940;HTU21D;63505;45.226;37.908;2023-06-22T04:09:12;22.10;81.01
74940;HTU21D;63505;45.226;37.908;2023-06-22T04:11:38;22.09;80.94
74940;HTU21D;63505;45.226;37.908;2023-06-22T04:14:04;22.20;80.94
74940;HTU21D;63505;45.226;37.908;2023-06-22T04:16:29;22.35;80.68
74940;HTU21D;63505;45.226;37.908;2023-06-22T04:18:55;22.49;80.49
74940;HTU21D;63505;45.226;37.908;2023-06-22T04:21:21;22.60;80.20
74940;HTU21D;63505;45.226;37.908;2023-06-22T04:23:47;22.65;79.97
74940;HTU21D;63505;45.226;37.908;2023-06-22T04:26:14;22.73;79.73
74940;HTU21D;63505;45.226;37.908;2023-06-22T04:28:40;22.80;79.47
74940;HTU21D;63505;45.226;37.908;2023-06-22T04:31:06;22.90;79.24
74940;HTU21D;63505;45.226;37.908;2023-06-22T04:33:32;22.98;78.83
74940;HTU21D;63505;45.226;37.908;2023-06-22T04:35:58;23.05;78.50
74940;HTU21D;63505;45.226;37.908;2023-06-22T04:38:29;23.17;78.34
74940;HTU21D;63505;45.226;37.908;2023-06-22T04:40:59;23.34;77.98
74940;HTU21D;63505;45.226;37.908;2023-06-22T04:43:27;23.46;77.69
74940;HTU21D;63505;45.226;37.908;2023-06-22T04:45:58;23.59;77.52
74940;HTU21D;63505;45.226;37.908;2023-06-22T04:48:31;23.72;77.27
74940;HTU21D;63505;45.226;37.908;2023-06-22T04:51:01;23.82;77.05
74940;HTU21D;63505;45.226;37.908;2023-06-22T04:53:30;23.94;76.88
74940;HTU21D;63505;45.226;37.908;2023-06-22T04:55:56;24.00;76.63
74940;HTU21D;63505;45.226;37.908;2023-06-22T04:58:22;24.11;76.45
74940;HTU21D;63505;45.226;37.908;2023-06-22T05:00:47;24.21;76.06
74940;HTU21D;63505;45.226;37.908;2023-06-22T05:03:13;24.28;75.86
74940;HTU21D;63505;45.226;37.908;2023-06-22T05:05:39;24.40;75.67
74940;HTU21D;63505;45.226;37.908;2023-06-22T05:08:05;24.47;75.39
74940;HTU21D;63505;45.226;37.908;2023-06-22T05:10:33;24.56;75.28
74940;HTU21D;63505;45.226;37.908;2023-06-22T05:12:59;24.65;75.00
74940;HTU21D;63505;45.226;37.908;2023-06-22T05:15:25;24.75;74.72
74940;HTU21D;63505;45.226;37.908;2023-06-22T05:17:54;24.83;74.45
74940;HTU21D;63505;45.226;37.908;2023-06-22T05:20:20;24.87;74.22
74940;HTU21D;63505;45.226;37.908;2023-06-22T05:22:47;24.97;73.93
74940;HTU21D;63505;45.226;37.908;2023-06-22T05:25:13;25.05;73.57
74940;HTU21D;63505;45.226;37.908;2023-06-22T05:27:39;25.15;73.35
74940;HTU21D;63505;45.226;37.908;2023-06-22T05:30:08;25.28;72.89
74940;HTU21D;63505;45.226;37.908;2023-06-22T05:32:35;25.40;72.82
74940;HTU21D;63505;45.226;37.908;2023-06-22T05:35:02;25.58;72.31
74940;HTU21D;63505;45.226;37.908;2023-06-22T05:37:29;25.65;71.93
74940;HTU21D;63505;45.226;37.908;2023-06-22T05:39:55;25.72;71.71
74940;HTU21D;63505;45.226;37.908;2023-06-22T05:42:21;25.79;71.51
74940;HTU21D;63505;45.226;37.908;2023-06-22T05:44:47;25.86;71.34
74940;HTU21D;63505;45.226;37.908;2023-06-22T05:47:13;25.98;71.17
74940;HTU21D;63505;45.226;37.908;2023-06-22T05:49:39;26.12;70.60
74940;HTU21D;63505;45.226;37.908;2023-06-22T05:52:05;26.26;70.25
74940;HTU21D;63505;45.226;37.908;2023-06-22T05:54:31;26.36;69.98
74940;HTU21D;63505;45.226;37.908;2023-06-22T05:56:57;26.54;69.40
74940;HTU21D;63505;45.226;37.908;2023-06-22T05:59:23;26.62;69.02
74940;HTU21D;63505;45.226;37.908;2023-06-22T06:01:48;26.72;68.68
74940;HTU21D;63505;45.226;37.908;2023-06-22T06:04:19;26.76;68.11
74940;HTU21D;63505;45.226;37.908;2023-06-22T06:06:45;26.71;67.39
74940;HTU21D;63505;45.226;37.908;2023-06-22T06:09:13;26.69;67.43
74940;HTU21D;63505;45.226;37.908;2023-06-22T06:11:39;26.76;67.46
74940;HTU21D;63505;45.226;37.908;2023-06-22T06:14:05;26.86;67.20
74940;HTU21D;63505;45.226;37.908;2023-06-22T06:16:32;26.92;67.02
74940;HTU21D;63505;45.226;37.908;2023-06-22T06:18:58;26.97;66.86
74940;HTU21D;63505;45.226;37.908;2023-06-22T06:21:24;27.12;66.57
74940;HTU21D;63505;45.226;37.908;2023-06-22T06:23:50;27.27;66.24
74940;HTU21D;63505;45.226;37.908;2023-06-22T06:26:16;27.41;65.95
74940;HTU21D;63505;45.226;37.908;2023-06-22T06:28:45;27.55;65.43
74940;HTU21D;63505;45.226;37.908;2023-06-22T06:31:11;27.53;64.84
74940;HTU21D;63505;45.226;37.908;2023-06-22T06:33:37;27.64;64.85
74940;HTU21D;63505;45.226;37.908;2023-06-22T06:36:03;27.68;64.23
74940;HTU21D;63505;45.226;37.908;2023-06-22T06:38:30;27.75;64.22
74940;HTU21D;63505;45.226;37.908;2023-06-22T06:40:56;27.89;63.79
74940;HTU21D;63505;45.226;37.908;2023-06-22T06:43:22;28.00;63.34
74940;HTU21D;63505;45.226;37.908;2023-06-22T06:45:49;28.08;62.89
74940;HTU21D;63505;45.226;37.908;2023-06-22T06:48:15;28.21;62.46
74940;HTU21D;63505;45.226;37.908;2023-06-22T06:50:41;28.30;61.58
74940;HTU21D;63505;45.226;37.908;2023-06-22T06:53:09;28.30;60.97
74940;HTU21D;63505;45.226;37.908;2023-06-22T06:55:35;28.37;60.69
74940;HTU21D;63505;45.226;37.908;2023-06-22T06:58:02;28.41;60.22
74940;HTU21D;63505;45.226;37.908;2023-06-22T07:00:28;28.42;60.09
74940;HTU21D;63505;45.226;37.908;2023-06-22T07:02:54;28.45;60.22
74940;HTU21D;63505;45.226;37.908;2023-06-22T07:05:20;28.48;60.25
74940;HTU21D;63505;45.226;37.908;2023-06-22T07:07:45;28.59;59.88
74940;HTU21D;63505;45.226;37.908;2023-06-22T07:10:11;28.64;59.22
74940;HTU21D;63505;45.226;37.908;2023-06-22T07:12:37;28.67;59.03
74940;HTU21D;63505;45.226;37.908;2023-06-22T07:15:04;28.79;58.88
74940;HTU21D;63505;45.226;37.908;2023-06-22T07:17:31;28.86;58.64
74940;HTU21D;63505;45.226;37.908;2023-06-22T07:19:57;28.89;58.60
74940;HTU21D;63505;45.226;37.908;2023-06-22T07:22:22;28.99;58.11
74940;HTU21D;63505;45.226;37.908;2023-06-22T07:24:48;29.02;57.92
74940;HTU21D;63505;45.226;37.908;2023-06-22T07:27:15;29.05;57.25
74940;HTU21D;63505;45.226;37.908;2023-06-22T07:29:44;28.99;56.91
74940;HTU21D;63505;45.226;37.908;2023-06-22T07:32:10;28.95;56.87
74940;HTU21D;63505;45.226;37.908;2023-06-22T07:34:36;29.00;56.48
74940;HTU21D;63505;45.226;37.908;2023-06-22T07:37:02;28.98;56.59
74940;HTU21D;63505;45.226;37.908;2023-06-22T07:39:30;29.07;56.74
74940;HTU21D;63505;45.226;37.908;2023-06-22T07:41:55;29.11;56.31
74940;HTU21D;63505;45.226;37.908;2023-06-22T07:44:21;29.15;56.03
74940;HTU21D;63505;45.226;37.908;2023-06-22T07:46:47;29.21;55.94
74940;HTU21D;63505;45.226;37.908;2023-06-22T07:49:13;29.22;55.74
74940;HTU21D;63505;45.226;37.908;2023-06-22T07:51:39;29.27;55.52
74940;HTU21D;63505;45.226;37.908;2023-06-22T07:54:05;29.32;55.41
74940;HTU21D;63505;45.226;37.908;2023-06-22T07:56:31;29.41;55.21
74940;HTU21D;63505;45.226;37.908;2023-06-22T07:58:57;29.45;54.56
74940;HTU21D;63505;45.226;37.908;2023-06-22T08:01:24;29.43;54.31
74940;HTU21D;63505;45.226;37.908;2023-06-22T08:03:50;29.42;54.31
74940;HTU21D;63505;45.226;37.908;2023-06-22T08:06:16;29.41;54.04
74940;HTU21D;63505;45.226;37.908;2023-06-22T08:08:42;29.34;53.77
74940;HTU21D;63505;45.226;37.908;2023-06-22T08:11:09;29.32;53.54
74940;HTU21D;63505;45.226;37.908;2023-06-22T08:13:35;29.36;53.37
74940;HTU21D;63505;45.226;37.908;2023-06-22T08:16:01;29.39;52.91
74940;HTU21D;63505;45.226;37.908;2023-06-22T08:18:28;29.42;52.67
74940;HTU21D;63505;45.226;37.908;2023-06-22T08:20:54;29.46;52.67
74940;HTU21D;63505;45.226;37.908;2023-06-22T08:23:20;29.58;52.30
74940;HTU21D;63505;45.226;37.908;2023-06-22T08:25:46;29.60;51.96
74940;HTU21D;63505;45.226;37.908;2023-06-22T08:28:13;29.64;52.14
74940;HTU21D;63505;45.226;37.908;2023-06-22T08:30:39;29.61;51.97
74940;HTU21D;63505;45.226;37.908;2023-06-22T08:33:05;29.56;51.46
74940;HTU21D;63505;45.226;37.908;2023-06-22T08:35:31;29.56;51.30
74940;HTU21D;63505;45.226;37.908;2023-06-22T08:37:57;29.47;50.64
74940;HTU21D;63505;45.226;37.908;2023-06-22T08:40:24;29.43;50.34
74940;HTU21D;63505;45.226;37.908;2023-06-22T08:42:50;29.42;50.24
74940;HTU21D;63505;45.226;37.908;2023-06-22T08:45:16;29.53;50.01
74940;HTU21D;63505;45.226;37.908;2023-06-22T08:47:42;29.61;49.24
74940;HTU21D;63505;45.226;37.908;2023-06-22T08:50:11;29.60;48.76
74940;HTU21D;63505;45.226;37.908;2023-06-22T08:52:39;29.53;48.34
74940;HTU21D;63505;45.226;37.908;2023-06-22T08:55:07;29.49;48.16
74940;HTU21D;63505;45.226;37.908;2023-06-22T08:57:34;29.54;48.40
74940;HTU21D;63505;45.226;37.908;2023-06-22T09:00:02;29.63;48.64
74940;HTU21D;63505;45.226;37.908;2023-06-22T09:02:31;29.76;48.61
74940;HTU21D;63505;45.226;37.908;2023-06-22T09:04:57;29.92;47.75
74940;HTU21D;63505;45.226;37.908;2023-06-22T09:07:24;30.03;47.50
74940;HTU21D;63505;45.226;37.908;2023-06-22T09:09:51;30.10;47.25
74940;HTU21D;63505;45.226;37.908;2023-06-22T09:12:18;30.07;47.27
74940;HTU21D;63505;45.226;37.908;2023-06-22T09:14:46;30.04;46.60
74940;HTU21D;63505;45.226;37.908;2023-06-22T09:17:12;30.01;46.69
74940;HTU21D;63505;45.226;37.908;2023-06-22T09:19:38;30.08;46.39
74940;HTU21D;63505;45.226;37.908;2023-06-22T09:22:05;30.11;46.48
74940;HTU21D;63505;45.226;37.908;2023-06-22T09:24:32;30.05;46.26
74940;HTU21D;63505;45.226;37.908;2023-06-22T09:26:58;29.91;45.98
74940;HTU21D;63505;45.226;37.908;2023-06-22T09:29:24;29.92;46.21
74940;HTU21D;63505;45.226;37.908;2023-06-22T09:31:50;30.02;45.96
74940;HTU21D;63505;45.226;37.908;2023-06-22T09:34:19;30.02;46.32
74940;HTU21D;63505;45.226;37.908;2023-06-22T09:36:48;30.08;46.17
74940;HTU21D;63505;45.226;37.908;2023-06-22T09:39:14;30.16;45.70
74940;HTU21D;63505;45.226;37.908;2023-06-22T09:41:40;30.31;45.78
74940;HTU21D;63505;45.226;37.908;2023-06-22T09:44:06;30.36;45.24
74940;HTU21D;63505;45.226;37.908;2023-06-22T09:46:32;30.36;44.83
74940;HTU21D;63505;45.226;37.908;2023-06-22T09:48:58;30.28;44.77
74940;HTU21D;63505;45.226;37.908;2023-06-22T09:51:24;30.31;44.30
74940;HTU21D;63505;45.226;37.908;2023-06-22T09:53:50;30.31;44.29
74940;HTU21D;63505;45.226;37.908;2023-06-22T09:56:16;30.31;44.68
74940;HTU21D;63505;45.226;37.908;2023-06-22T09:58:44;30.38;44.65
74940;HTU21D;63505;45.226;37.908;2023-06-22T10:01:10;30.31;44.79
74940;HTU21D;63505;45.226;37.908;2023-06-22T10:03:36;30.32;44.51
74940;HTU21D;63505;45.226;37.908;2023-06-22T10:06:02;30.25;44.38
74940;HTU21D;63505;45.226;37.908;2023-06-22T10:08:28;30.27;44.04
74940;HTU21D;63505;45.226;37.908;2023-06-22T10:10:54;30.32;44.18
74940;HTU21D;63505;45.226;37.908;2023-06-22T10:13:20;30.38;44.36
74940;HTU21D;63505;45.226;37.908;2023-06-22T10:15:46;30.48;44.09
74940;HTU21D;63505;45.226;37.908;2023-06-22T10:18:17;30.51;43.44
74940;HTU21D;63505;45.226;37.908;2023-06-22T10:20:43;30.47;43.21
74940;HTU21D;63505;45.226;37.908;2023-06-22T10:23:09;30.45;43.29
74940;HTU21D;63505;45.226;37.908;2023-06-22T10:25:35;30.46;43.64
74940;HTU21D;63505;45.226;37.908;2023-06-22T10:28:01;30.39;43.74
74940;HTU21D;63505;45.226;37.908;2023-06-22T10:30:27;30.37;43.71
74940;HTU21D;63505;45.226;37.908;2023-06-22T10:32:54;30.40;43.19
74940;HTU21D;63505;45.226;37.908;2023-06-22T10:35:20;30.46;43.29
74940;HTU21D;63505;45.226;37.908;2023-06-22T10:37:46;30.47;43.29
74940;HTU21D;63505;45.226;37.908;2023-06-22T10:40:13;30.55;43.31
74940;HTU21D;63505;45.226;37.908;2023-06-22T10:42:39;30.59;42.61
74940;HTU21D;63505;45.226;37.908;2023-06-22T10:45:06;30.60;42.41
74940;HTU21D;63505;45.226;37.908;2023-06-22T10:47:32;30.54;41.94
74940;HTU21D;63505;45.226;37.908;2023-06-22T10:49:57;30.52;42.62
74940;HTU21D;63505;45.226;37.908;2023-06-22T10:52:23;30.54;42.35
74940;HTU21D;63505;45.226;37.908;2023-06-22T10:54:49;30.52;42.48
74940;HTU21D;63505;45.226;37.908;2023-06-22T10:57:15;30.48;41.88
74940;HTU21D;63505;45.226;37.908;2023-06-22T10:59:41;30.51;41.78
74940;HTU21D;63505;45.226;37.908;2023-06-22T11:02:07;30.60;41.86
74940;HTU21D;63505;45.226;37.908;2023-06-22T11:04:32;30.67;42.08
74940;HTU21D;63505;45.226;37.908;2023-06-22T11:06:58;30.80;41.65
74940;HTU21D;63505;45.226;37.908;2023-06-22T11:09:24;30.68;41.75
74940;HTU21D;63505;45.226;37.908;2023-06-22T11:11:51;30.62;41.86
74940;HTU21D;63505;45.226;37.908;2023-06-22T11:14:20;30.61;41.89
74940;HTU21D;63505;45.226;37.908;2023-06-22T11:16:47;30.60;41.78
74940;HTU21D;63505;45.226;37.908;2023-06-22T11:19:13;30.60;42.45
74940;HTU21D;63505;45.226;37.908;2023-06-22T11:21:39;30.67;42.45
74940;HTU21D;63505;45.226;37.908;2023-06-22T11:24:05;30.71;41.81
74940;HTU21D;63505;45.226;37.908;2023-06-22T11:26:31;30.68;41.10
74940;HTU21D;63505;45.226;37.908;2023-06-22T11:28:58;30.67;41.16
74940;HTU21D;63505;45.226;37.908;2023-06-22T11:31:24;30.60;41.20
74940;HTU21D;63505;45.226;37.908;2023-06-22T11:33:50;30.45;40.94
74940;HTU21D;63505;45.226;37.908;2023-06-22T11:36:16;30.28;40.98
74940;HTU21D;63505;45.226;37.908;2023-06-22T11:38:43;30.22;40.57
74940;HTU21D;63505;45.226;37.908;2023-06-22T11:41:09;30.19;40.59
74940;HTU21D;63505;45.226;37.908;2023-06-22T11:43:35;30.22;40.94
74940;HTU21D;63505;45.226;37.908;2023-06-22T11:46:03;30.23;40.12
74940;HTU21D;63505;45.226;37.908;2023-06-22T11:48:30;30.17;40.14
74940;HTU21D;63505;45.226;37.908;2023-06-22T11:50:56;30.05;40.51
74940;HTU21D;63505;45.226;37.908;2023-06-22T11:53:26;30.00;40.55
74940;HTU21D;63505;45.226;37.908;2023-06-22T11:55:52;29.91;40.68
74940;HTU21D;63505;45.226;37.908;2023-06-22T11:58:19;29.83;40.81
74940;HTU21D;63505;45.226;37.908;2023-06-22T12:00:45;29.74;41.03
74940;HTU21D;63505;45.226;37.908;2023-06-22T12:03:11;29.79;40.76
74940;HTU21D;63505;45.226;37.908;2023-06-22T12:05:38;29.79;40.98
74940;HTU21D;63505;45.226;37.908;2023-06-22T12:08:04;29.85;40.71
74940;HTU21D;63505;45.226;37.908;2023-06-22T12:10:30;29.89;40.24
74940;HTU21D;63505;45.226;37.908;2023-06-22T12:12:56;29.93;39.51
74940;HTU21D;63505;45.226;37.908;2023-06-22T12:15:26;29.95;39.30
74940;HTU21D;63505;45.226;37.908;2023-06-22T12:17:52;29.95;39.12
74940;HTU21D;63505;45.226;37.908;2023-06-22T12:20:18;29.96;39.30
74940;HTU21D;63505;45.226;37.908;2023-06-22T12:22:44;30.00;38.82
74940;HTU21D;63505;45.226;37.908;2023-06-22T12:25:11;29.94;38.53
74940;HTU21D;63505;45.226;37.908;2023-06-22T12:27:37;29.92;38.30
74940;HTU21D;63505;45.226;37.908;2023-06-22T12:30:04;29.94;38.43
74940;HTU21D;63505;45.226;37.908;2023-06-22T12:32:30;30.04;38.36
74940;HTU21D;63505;45.226;37.908;2023-06-22T12:34:56;30.10;38.11
74940;HTU21D;63505;45.226;37.908;2023-06-22T12:37:23;30.18;38.20
74940;HTU21D;63505;45.226;37.908;2023-06-22T12:39:49;30.13;38.04
74940;HTU21D;63505;45.226;37.908;2023-06-22T12:42:16;30.04;38.03
74940;HTU21D;63505;45.226;37.908;2023-06-22T12:44:42;29.91;37.78
74940;HTU21D;63505;45.226;37.908;2023-06-22T12:47:08;29.80;37.60
74940;HTU21D;63505;45.226;37.908;2023-06-22T12:49:35;29.71;37.38
74940;HTU21D;63505;45.226;37.908;2023-06-22T12:52:01;29.70;37.89
74940;HTU21D;63505;45.226;37.908;2023-06-22T12:54:27;29.74;37.94
74940;HTU21D;63505;45.226;37.908;2023-06-22T12:56:55;29.74;37.97
74940;HTU21D;63505;45.226;37.908;2023-06-22T12:59:21;29.74;37.60
74940;HTU21D;63505;45.226;37.908;2023-06-22T13:01:46;29.65;37.50
74940;HTU21D;63505;45.226;37.908;2023-06-22T13:04:12;29.59;37.72
74940;HTU21D;63505;45.226;37.908;2023-06-22T13:06:41;29.53;37.71
74940;HTU21D;63505;45.226;37.908;2023-06-22T13:09:07;29.54;37.82
74940;HTU21D;63505;45.226;37.908;2023-06-22T13:11:34;29.54;37.92
74940;HTU21D;63505;45.226;37.908;2023-06-22T13:14:00;29.53;38.21
74940;HTU21D;63505;45.226;37.908;2023-06-22T13:16:26;29.50;38.10
74940;HTU21D;63505;45.226;37.908;2023-06-22T13:18:51;29.38;38.35
74940;HTU21D;63505;45.226;37.908;2023-06-22T13:21:17;29.28;38.53
74940;HTU21D;63505;45.226;37.908;2023-06-22T13:23:43;29.23;38.80
74940;HTU21D;63505;45.226;37.908;2023-06-22T13:26:09;29.17;39.04
74940;HTU21D;63505;45.226;37.908;2023-06-22T13:28:35;29.08;39.19
74940;HTU21D;63505;45.226;37.908;2023-06-22T13:31:00;29.00;39.24
74940;HTU21D;63505;45.226;37.908;2023-06-22T13:33:26;28.90;38.76
74940;HTU21D;63505;45.226;37.908;2023-06-22T13:35:52;28.86;38.85
74940;HTU21D;63505;45.226;37.908;2023-06-22T13:38:18;28.85;38.95
74940;HTU21D;63505;45.226;37.908;2023-06-22T13:40:44;28.87;38.98
74940;HTU21D;63505;45.226;37.908;2023-06-22T13:43:10;28.83;38.97
74940;HTU21D;63505;45.226;37.908;2023-06-22T13:45:36;28.79;38.91
74940;HTU21D;63505;45.226;37.908;2023-06-22T13:48:02;28.82;38.54
74940;HTU21D;63505;45.226;37.908;2023-06-22T13:50:27;28.83;38.49
74940;HTU21D;63505;45.226;37.908;2023-06-22T13:52:55;28.77;38.85
74940;HTU21D;63505;45.226;37.908;2023-06-22T13:55:22;28.73;39.04
74940;HTU21D;63505;45.226;37.908;2023-06-22T13:57:49;28.67;39.21
74940;HTU21D;63505;45.226;37.908;2023-06-22T14:00:15;28.62;39.08
74940;HTU21D;63505;45.226;37.908;2023-06-22T14:02:42;28.54;39.00
74940;HTU21D;63505;45.226;37.908;2023-06-22T14:05:08;28.47;39.04
74940;HTU21D;63505;45.226;37.908;2023-06-22T14:07:34;28.44;39.30
74940;HTU21D;63505;45.226;37.908;2023-06-22T14:10:00;28.38;39.43
74940;HTU21D;63505;45.226;37.908;2023-06-22T14:12:26;28.32;39.59
74940;HTU21D;63505;45.226;37.908;2023-06-22T14:14:52;28.28;39.74
74940;HTU21D;63505;45.226;37.908;2023-06-22T14:17:18;28.31;39.72
74940;HTU21D;63505;45.226;37.908;2023-06-22T14:19:51;28.32;39.47
74940;HTU21D;63505;45.226;37.908;2023-06-22T14:22:19;28.28;39.56
74940;HTU21D;63505;45.226;37.908;2023-06-22T14:24:46;28.24;39.65
74940;HTU21D;63505;45.226;37.908;2023-06-22T14:27:12;28.18;39.62
74940;HTU21D;63505;45.226;37.908;2023-06-22T14:29:37;28.17;39.55
74940;HTU21D;63505;45.226;37.908;2023-06-22T14:32:03;28.16;39.56
74940;HTU21D;63505;45.226;37.908;2023-06-22T14:34:35;28.08;39.49
74940;HTU21D;63505;45.226;37.908;2023-06-22T14:37:02;27.97;39.60
74940;HTU21D;63505;45.226;37.908;2023-06-22T14:39:28;27.88;39.83
74940;HTU21D;63505;45.226;37.908;2023-06-22T14:41:54;27.82;39.72
74940;HTU21D;63505;45.226;37.908;2023-06-22T14:44:20;27.78;39.92
74940;HTU21D;63505;45.226;37.908;2023-06-22T14:46:46;27.73;40.16
74940;HTU21D;63505;45.226;37.908;2023-06-22T14:49:12;27.71;40.24
74940;HTU21D;63505;45.226;37.908;2023-06-22T14:51:37;27.69;40.28
74940;HTU21D;63505;45.226;37.908;2023-06-22T14:54:03;27.65;40.22
74940;HTU21D;63505;45.226;37.908;2023-06-22T14:56:29;27.60;40.20
74940;HTU21D;63505;45.226;37.908;2023-06-22T14:58:55;27.53;40.10
74940;HTU21D;63505;45.226;37.908;2023-06-22T15:01:21;27.45;40.01
74940;HTU21D;63505;45.226;37.908;2023-06-22T15:03:47;27.43;40.20